»·PEaware :: SWA1604 KHOU-KAUS

SWA1604 :: KHOU-KAUS

FLIGHT INFORMATION

Flight Status: Arrived
Operator:
Southwest Airlines
More flights by this operator :: More flights under this callsign
Pilot: Anonymous 14085 (14085)
Aircraft: BOEING 737-300
(B733)
More flights by this aircraft type
Origin: KHOU Hobby
United States
Destination: KAUS Austin Bergstrom Intl
United States
More flights between these airports :: More routes between these airports
Route: RETYR5 MNURE WLEEE
File this flight plan on PilotEdge
Remarks: PBN / A1B3B4B5D3D4 DOF / 170608 REG / N372SB OPR / SWA RMK / TCAS SIMBRIEF
Altitude:
(Current/Filed)
20,000ft
Speed:
(Current/Filed)
411kts
Departed: 08-Jun-17 09:30 AM
Arrived: 08-Jun-17 10:00 AM
Distance/Time
Traveled:
129nm/0:30
Distance/Time
To Go:
Arrived

Flight Plot

Page will automatically refresh every two minutes.

Flight plan parsing failed; only flown route is shown


Map Options




Map Legend


Flown Route
Filed Route
Departure Airport
Arrival Airport
Navaid (VOR, NDB)
Fix

Horizontal Profiles

Position Reports

Time Latitude Longitude Heading Altitude Ground
Speed
08-Jun-17 08:59 29.652801 -95.278497 155 48ft 0kts
08-Jun-17 09:00 29.652801 -95.278497 155 48ft 0kts
08-Jun-17 09:01 29.652801 -95.278497 155 48ft 0kts
08-Jun-17 09:02 29.652801 -95.278497 155 48ft 0kts
08-Jun-17 09:03 29.652801 -95.278497 155 48ft 0kts
08-Jun-17 09:04 29.652801 -95.278497 155 48ft 0kts
08-Jun-17 09:05 29.652801 -95.278497 155 48ft 0kts
08-Jun-17 09:06 29.652801 -95.278497 155 48ft 0kts
08-Jun-17 09:07 29.652801 -95.278497 155 48ft 0kts
08-Jun-17 09:08 29.652801 -95.278497 155 48ft 0kts
08-Jun-17 09:09 29.652801 -95.278497 155 48ft 0kts
08-Jun-17 09:10 29.652801 -95.278497 155 48ft 0kts
08-Jun-17 09:11 29.652801 -95.278497 155 48ft 0kts
08-Jun-17 09:12 29.652801 -95.278497 155 48ft 0kts
08-Jun-17 09:13 29.652801 -95.278497 155 48ft 0kts
08-Jun-17 09:14 29.652801 -95.278497 155 48ft 0kts
08-Jun-17 09:15 29.652801 -95.278497 155 48ft 0kts
08-Jun-17 09:16 29.652801 -95.278497 155 48ft 0kts
08-Jun-17 09:17 29.652801 -95.278497 155 48ft 0kts
08-Jun-17 09:21 29.652801 -95.278497 0 48ft 0kts
08-Jun-17 09:22 29.652801 -95.278497 155 48ft 0kts
08-Jun-17 09:23 29.652801 -95.278497 155 48ft 0kts
08-Jun-17 09:24 29.652876 -95.278536 155 48ft 0kts
08-Jun-17 09:25 29.653323 -95.278767 155 48ft 0kts
08-Jun-17 09:26 29.653323 -95.278767 155 48ft 0kts
08-Jun-17 09:27 29.653323 -95.278767 155 48ft 0kts
08-Jun-17 09:28 29.652898 -95.279135 239 48ft 6kts
08-Jun-17 09:29 29.652986 -95.281361 313 48ft 12kts
08-Jun-17 09:30 29.652074 -95.284659 178 48ft 0kts
08-Jun-17 09:31 29.652074 -95.284659 178 48ft 0kts
08-Jun-17 09:32 29.651216 -95.284636 175 48ft 45kts
08-Jun-17 09:33 29.606825 -95.283944 177 1717ft 187kts
08-Jun-17 09:34 29.583962 -95.323443 302 3295ft 253kts
08-Jun-17 09:35 29.630065 -95.384375 287 6732ft 275kts
08-Jun-17 09:36 29.650119 -95.470934 287 10179ft 290kts
08-Jun-17 09:37 29.673120 -95.571594 287 12339ft 346kts
08-Jun-17 09:38 29.697058 -95.677075 286 15275ft 360kts
08-Jun-17 09:39 29.722584 -95.788957 290 18083ft 370kts
08-Jun-17 09:40 29.765717 -95.883376 282 19911ft 383kts
08-Jun-17 09:41 29.769329 -96.006632 278 20047ft 389kts
08-Jun-17 09:42 29.781975 -96.130429 278 20048ft 390kts
08-Jun-17 09:43 29.794661 -96.255507 278 20044ft 399kts
08-Jun-17 09:44 29.807399 -96.382355 278 20048ft 399kts
08-Jun-17 09:45 29.819990 -96.508964 278 20038ft 399kts
08-Jun-17 09:46 29.832236 -96.633409 278 18423ft 380kts
08-Jun-17 09:47 29.843402 -96.748119 278 16601ft 362kts
08-Jun-17 09:48 29.854315 -96.861028 278 14702ft 349kts
08-Jun-17 09:49 29.864565 -96.968029 278 12824ft 333kts
08-Jun-17 09:50 29.887270 -97.062109 295 11277ft 304kts
08-Jun-17 09:51 29.918303 -97.145823 291 10340ft 269kts
08-Jun-17 09:52 29.945100 -97.221329 289 9242ft 246kts
08-Jun-17 09:53 29.970822 -97.294410 289 7655ft 247kts
08-Jun-17 09:54 29.996277 -97.366900 290 6131ft 241kts
08-Jun-17 09:55 30.019695 -97.433744 293 5102ft 209kts
08-Jun-17 09:56 30.040315 -97.492777 295 3882ft 183kts
08-Jun-17 09:57 30.058868 -97.545909 294 2879ft 173kts
08-Jun-17 09:58 30.079718 -97.593374 311 1946ft 160kts
08-Jun-17 09:59 30.111954 -97.622091 324 1641ft 150kts
08-Jun-17 10:00 30.144766 -97.650483 331 1421ft 150kts
08-Jun-17 10:01 30.184389 -97.657339 355 488ft 142kts
08-Jun-17 10:02 30.198528 -97.658599 326 485ft 25kts
08-Jun-17 10:03 30.199098 -97.665970 267 485ft 24kts
08-Jun-17 10:04 30.201278 -97.666731 356 485ft 0kts
08-Jun-17 10:05 30.201278 -97.666731 356 485ft 0kts
08-Jun-17 10:06 30.201278 -97.666731 356 485ft 0kts
08-Jun-17 10:07 30.201278 -97.666731 356 485ft 0kts
08-Jun-17 10:08 30.201278 -97.666731 356 485ft 0kts

Navigation Log

Ident Type
Flight plan parsing failed, navigation log unavailable